createdAt,value
2018-12-07T07:25:58.035Z,22.90
2018-12-07T07:28:55.675Z,24.20
2018-12-07T07:31:23.891Z,24.60
2018-12-07T07:33:52.143Z,24.53
2018-12-07T07:36:20.369Z,22.60
2018-12-07T07:38:48.608Z,23.30
2018-12-07T07:41:16.826Z,23.27
2018-12-07T07:43:45.971Z,22.60
2018-12-07T07:46:14.429Z,22.60
2018-12-07T07:48:42.663Z,21.20
2018-12-07T07:51:10.895Z,19.43
2018-12-07T07:53:39.139Z,21.30
2018-12-07T07:56:12.164Z,19.90
2018-12-07T07:58:37.747Z,22.07
2018-12-07T08:01:05.975Z,19.03
2018-12-07T08:03:34.227Z,20.23
2018-12-07T08:06:02.463Z,19.93
2018-12-07T08:08:30.724Z,20.43
2018-12-07T08:10:59.099Z,19.53
2018-12-07T08:13:27.344Z,19.67
2018-12-07T08:15:55.575Z,19.07
2018-12-07T08:18:23.823Z,17.67
2018-12-07T08:20:52.051Z,17.47
2018-12-07T08:23:20.284Z,17.33
2018-12-07T08:25:48.530Z,17.10
2018-12-07T08:28:16.771Z,17.57
2018-12-07T08:30:45.108Z,18.37
2018-12-07T08:33:13.336Z,17.90
2018-12-07T08:35:41.667Z,17.20
2018-12-07T08:38:09.894Z,16.83
2018-12-07T08:40:38.145Z,16.63
2018-12-07T08:43:06.398Z,16.17
2018-12-07T08:45:34.659Z,15.77
2018-12-07T08:48:03.048Z,15.67
2018-12-07T08:50:31.380Z,13.87
2018-12-07T08:52:59.768Z,15.50
2018-12-07T08:55:28.100Z,15.50
2018-12-07T08:57:56.332Z,14.87
2018-12-07T09:00:24.748Z,14.43
2018-12-07T09:02:52.980Z,14.87
2018-12-07T09:05:21.327Z,14.83
2018-12-07T09:07:49.727Z,15.10
2018-12-07T09:10:17.975Z,13.83
2018-12-07T09:12:46.212Z,13.30
2018-12-07T09:15:14.464Z,13.80
2018-12-07T09:17:42.779Z,12.97
2018-12-07T09:20:11.104Z,13.03
2018-12-07T09:22:39.343Z,12.70
2018-12-07T09:25:07.760Z,13.13
2018-12-07T09:27:35.991Z,13.30
2018-12-07T09:30:04.656Z,13.03
2018-12-07T09:32:32.907Z,12.27
2018-12-07T09:35:01.195Z,12.73
2018-12-07T09:37:29.432Z,12.13
2018-12-07T09:39:57.751Z,12.93
2018-12-07T09:42:26.079Z,13.60
2018-12-07T09:44:54.324Z,13.03
2018-12-07T09:47:22.576Z,13.10
2018-12-07T09:49:50.807Z,11.70
2018-12-07T09:52:19.150Z,12.90
2018-12-07T09:54:47.388Z,11.50
2018-12-07T09:57:15.640Z,11.33
2018-12-07T09:59:50.524Z,10.83
2018-12-07T10:02:18.864Z,11.13
2018-12-07T10:04:47.195Z,10.53
2018-12-07T10:07:15.450Z,9.23
2018-12-07T10:09:43.773Z,9.80
2018-12-07T10:12:12.015Z,10.20
2018-12-07T10:14:40.331Z,10.70
2018-12-07T10:17:08.660Z,9.97
2018-12-07T10:19:36.973Z,10.37
2018-12-07T10:22:05.308Z,10.03
2018-12-07T10:24:33.631Z,10.30
2018-12-07T10:27:06.319Z,9.23
2018-12-07T10:29:34.957Z,9.70
2018-12-07T10:32:03.956Z,9.67
2018-12-07T10:34:32.243Z,8.93
2018-12-07T10:37:06.095Z,9.00
2018-12-07T10:39:34.311Z,8.67
2018-12-07T10:42:02.572Z,8.93
2018-12-07T10:44:30.804Z,8.77
2018-12-07T10:46:59.031Z,7.10
2018-12-07T10:49:27.279Z,7.60
2018-12-07T10:51:55.496Z,7.90
2018-12-07T10:54:23.812Z,7.43
2018-12-07T10:56:52.039Z,6.70
2018-12-07T10:59:20.363Z,7.67
2018-12-07T11:01:54.172Z,7.07
2018-12-07T11:04:27.908Z,6.53
2018-12-07T11:07:01.604Z,5.77
2018-12-07T11:09:34.088Z,5.63
2018-12-07T11:12:08.282Z,6.20
2018-12-07T11:14:42.073Z,5.40
2018-12-07T11:17:15.719Z,5.90
2018-12-07T11:19:49.636Z,5.10
2018-12-07T11:22:23.237Z,4.90
2018-12-07T11:24:56.830Z,4.80
2018-12-07T11:27:30.456Z,4.80
2018-12-07T11:30:04.091Z,3.80
2018-12-07T11:32:35.471Z,4.50
2018-12-07T11:35:09.064Z,4.17
2018-12-07T11:37:37.283Z,3.87
2018-12-07T11:40:06.924Z,3.83
2018-12-07T11:42:35.147Z,3.90
2018-12-07T11:45:03.680Z,3.73
2018-12-07T11:47:31.891Z,3.00
2018-12-07T11:50:00.225Z,3.30
2018-12-07T11:52:28.451Z,3.17
2018-12-07T11:54:56.692Z,3.47
2018-12-07T11:57:24.911Z,3.30
2018-12-07T11:59:53.151Z,3.03
2018-12-07T12:02:26.318Z,3.23
2018-12-07T12:04:51.752Z,3.00
2018-12-07T12:07:19.967Z,3.00
2018-12-07T12:09:48.180Z,2.83
2018-12-07T12:12:16.433Z,2.70
2018-12-07T12:14:44.663Z,2.73
2018-12-07T12:17:12.900Z,3.00
2018-12-07T12:19:41.130Z,2.93
2018-12-07T12:22:09.480Z,2.70
2018-12-07T12:24:37.732Z,2.27
2018-12-07T12:27:05.975Z,2.40
2018-12-07T12:29:34.201Z,2.20
2018-12-07T12:32:02.444Z,2.50
2018-12-07T12:34:30.672Z,2.37
2018-12-07T12:36:58.924Z,2.33
2018-12-07T12:39:27.153Z,2.37
2018-12-07T12:41:55.395Z,2.40
2018-12-07T12:44:23.633Z,2.10
2018-12-07T12:46:51.884Z,2.20
2018-12-07T12:49:20.121Z,2.40
2018-12-07T12:51:48.369Z,2.20
2018-12-07T12:54:16.676Z,2.30
2018-12-07T12:56:44.924Z,2.20
2018-12-07T12:59:13.151Z,2.27
2018-12-07T13:01:41.492Z,2.20
2018-12-07T13:04:10.015Z,2.07
2018-12-07T13:06:38.284Z,2.40
2018-12-07T13:09:07.926Z,2.33
2018-12-07T13:11:36.185Z,2.20
2018-12-07T13:14:04.587Z,2.70
2018-12-07T13:16:32.891Z,2.20
2018-12-07T13:19:01.134Z,2.30
2018-12-07T13:21:29.361Z,2.40
2018-12-07T13:23:57.600Z,2.40
2018-12-07T13:26:25.833Z,2.57
2018-12-07T13:28:54.063Z,2.80
2018-12-07T13:31:22.285Z,3.17
2018-12-07T13:33:50.614Z,3.03
2018-12-07T13:36:18.842Z,3.00
2018-12-07T13:38:47.087Z,2.83
2018-12-07T13:41:15.340Z,3.00
2018-12-07T13:43:43.646Z,3.23
2018-12-07T13:46:11.980Z,3.17
2018-12-07T13:48:40.464Z,3.67
2018-12-07T13:51:08.769Z,4.00
2018-12-07T13:53:38.146Z,3.77
2018-12-07T13:56:07.051Z,3.77
2018-12-07T13:58:35.581Z,4.10
2018-12-07T14:01:04.096Z,4.33
2018-12-07T14:03:32.456Z,4.60
2018-12-07T14:06:00.889Z,4.43
2018-12-07T14:08:29.395Z,5.30
2018-12-07T14:10:57.702Z,4.83
2018-12-07T14:13:26.268Z,4.90
2018-12-07T14:15:54.606Z,5.23
2018-12-07T14:18:23.068Z,5.93
2018-12-07T14:20:51.392Z,6.30
2018-12-07T14:23:19.665Z,5.53
2018-12-07T14:25:48.000Z,5.13
2018-12-07T14:28:16.267Z,5.63
2018-12-07T14:30:44.619Z,5.60
2018-12-07T14:33:13.078Z,5.90
2018-12-07T14:35:41.609Z,5.17
2018-12-07T14:38:09.848Z,5.30
2018-12-07T14:40:44.970Z,5.97
2018-12-07T14:43:13.488Z,6.00
2018-12-07T14:45:41.926Z,5.80
2018-12-07T14:48:10.453Z,5.40
2018-12-07T14:50:38.920Z,6.17
2018-12-07T14:53:07.409Z,5.77
2018-12-07T14:55:35.839Z,5.53
2018-12-07T14:58:04.175Z,5.90
2018-12-07T15:00:32.694Z,5.50
2018-12-07T15:03:01.034Z,5.50
2018-12-07T15:05:29.523Z,5.20
2018-12-07T15:07:57.877Z,5.37
2018-12-07T15:10:26.479Z,4.90
2018-12-07T15:12:55.011Z,5.43
2018-12-07T15:15:23.575Z,5.10
2018-12-07T15:17:52.207Z,5.67
2018-12-07T15:20:20.909Z,5.53
2018-12-07T15:22:49.598Z,5.50
2018-12-07T15:25:18.293Z,6.90
2018-12-07T15:27:46.749Z,5.07
2018-12-07T15:30:15.196Z,5.83
2018-12-07T15:32:43.539Z,5.40
2018-12-07T15:35:11.988Z,5.90
2018-12-07T15:37:40.402Z,6.47
2018-12-07T15:40:09.975Z,5.40
2018-12-07T15:42:39.854Z,6.40
2018-12-07T15:45:08.974Z,5.80
2018-12-07T15:47:37.415Z,6.33
2018-12-07T15:50:07.990Z,6.13
2018-12-07T15:52:36.327Z,6.73
2018-12-07T15:55:05.048Z,6.27
2018-12-07T15:57:33.388Z,6.33
2018-12-07T16:00:01.836Z,6.43
2018-12-07T16:02:30.379Z,6.67
2018-12-07T16:04:58.986Z,6.83
2018-12-07T16:07:27.392Z,7.13
2018-12-07T16:09:55.759Z,6.93
2018-12-07T16:12:24.170Z,7.17
2018-12-07T16:14:52.479Z,7.10
2018-12-07T16:17:20.839Z,7.17
2018-12-07T16:19:49.171Z,7.50
2018-12-07T16:22:17.508Z,8.10
2018-12-07T16:24:45.808Z,7.20
2018-12-07T16:27:14.283Z,7.77
2018-12-07T16:29:42.648Z,7.70
2018-12-07T16:32:11.038Z,8.43
2018-12-07T16:34:39.588Z,8.93
2018-12-07T16:37:08.068Z,9.20
2018-12-07T16:39:36.686Z,10.07
2018-12-07T16:42:05.294Z,9.40
2018-12-07T16:44:33.666Z,9.80
2018-12-07T16:47:02.181Z,8.90
2018-12-07T16:49:30.533Z,8.83
2018-12-07T16:51:59.101Z,7.93
2018-12-07T16:54:27.507Z,7.97
2018-12-07T16:56:55.974Z,8.00
2018-12-07T16:59:24.649Z,7.87
2018-12-07T17:01:53.525Z,8.27
2018-12-07T17:04:21.848Z,7.97
2018-12-07T17:06:50.153Z,7.43
2018-12-07T17:09:18.525Z,7.53
2018-12-07T17:11:47.068Z,6.93
2018-12-07T17:14:15.411Z,7.60
2018-12-07T17:16:43.641Z,6.83
2018-12-07T17:19:11.897Z,6.37
2018-12-07T17:21:40.156Z,6.20
2018-12-07T17:24:08.495Z,6.13
2018-12-07T17:26:36.719Z,6.50
2018-12-07T17:29:04.960Z,5.83
2018-12-07T17:31:33.602Z,6.30
2018-12-07T17:34:02.383Z,6.00
2018-12-07T17:36:30.750Z,5.67
2018-12-07T17:38:59.278Z,6.23
2018-12-07T17:41:27.651Z,6.43
2018-12-07T17:43:56.137Z,6.13
2018-12-07T17:46:24.678Z,5.73
2018-12-07T17:48:52.951Z,5.30
2018-12-07T17:51:21.213Z,5.47
2018-12-07T17:53:49.544Z,5.20
2018-12-07T17:56:17.949Z,5.33
2018-12-07T17:58:46.530Z,6.50
2018-12-07T18:01:15.002Z,4.80
2018-12-07T18:03:43.218Z,4.30
2018-12-07T18:06:11.508Z,4.50
2018-12-07T18:08:40.115Z,4.20
2018-12-07T18:11:08.403Z,4.23
2018-12-07T18:13:36.818Z,4.13
2018-12-07T18:16:05.227Z,4.33
2018-12-07T18:18:33.869Z,4.13
2018-12-07T18:21:02.468Z,4.30
2018-12-07T18:23:31.035Z,4.40
2018-12-07T18:25:59.509Z,4.43
2018-12-07T18:28:27.985Z,4.53
2018-12-07T18:30:56.333Z,4.50
2018-12-07T18:33:24.751Z,4.23
2018-12-07T18:35:53.293Z,4.53
2018-12-07T18:38:21.634Z,4.43
2018-12-07T18:40:49.930Z,5.37
2018-12-07T18:43:18.311Z,4.40
2018-12-07T18:45:46.597Z,4.90
2018-12-07T18:48:15.090Z,4.47
2018-12-07T18:50:43.443Z,4.77
2018-12-07T18:53:12.146Z,4.70
2018-12-07T18:55:40.627Z,5.13
2018-12-07T18:58:09.293Z,5.33
2018-12-07T19:00:37.713Z,5.40
2018-12-07T19:03:06.272Z,5.50
2018-12-07T19:05:34.632Z,5.77
2018-12-07T19:08:03.215Z,6.10
2018-12-07T19:10:31.599Z,5.50
2018-12-07T19:13:00.541Z,5.03
2018-12-07T19:15:29.090Z,6.10
2018-12-07T19:17:57.405Z,6.00
2018-12-07T19:20:25.968Z,5.43
2018-12-07T19:22:54.515Z,5.73
2018-12-07T19:25:23.133Z,5.13
2018-12-07T19:27:51.702Z,5.50
2018-12-07T19:30:20.241Z,5.30
2018-12-07T19:32:48.623Z,5.13
2018-12-07T19:35:17.294Z,6.20
2018-12-07T19:37:45.808Z,5.40
2018-12-07T19:40:14.467Z,5.40
2018-12-07T19:42:43.078Z,5.20
2018-12-07T19:45:11.673Z,6.03
2018-12-07T19:47:40.191Z,5.17
2018-12-07T19:50:09.050Z,5.27
2018-12-07T19:52:37.606Z,5.60
2018-12-07T19:55:06.447Z,5.80
2018-12-07T19:57:34.977Z,5.80
2018-12-07T20:00:04.025Z,6.27
2018-12-07T20:02:32.444Z,4.93
2018-12-07T20:05:00.896Z,5.87
2018-12-07T20:07:29.628Z,5.67
2018-12-07T20:09:58.119Z,5.57
2018-12-07T20:12:26.807Z,5.30
2018-12-07T20:14:55.240Z,5.80
2018-12-07T20:17:23.535Z,4.80
2018-12-07T20:19:51.808Z,4.93
2018-12-07T20:22:20.104Z,5.47
2018-12-07T20:24:48.474Z,5.30
2018-12-07T20:27:16.933Z,5.67
2018-12-07T20:29:45.247Z,4.50
2018-12-07T20:32:13.471Z,5.00
2018-12-07T20:34:41.720Z,4.53
2018-12-07T20:37:10.154Z,5.10
2018-12-07T20:39:38.755Z,4.90
2018-12-07T20:42:07.286Z,4.50
2018-12-07T20:44:35.759Z,4.67
2018-12-07T20:47:04.046Z,3.70
2018-12-07T20:49:32.617Z,4.00
2018-12-07T20:52:01.118Z,4.40
2018-12-07T20:54:29.565Z,3.93
2018-12-07T20:56:57.813Z,4.10
2018-12-07T20:59:26.236Z,3.67
2018-12-07T21:01:54.658Z,3.70
2018-12-07T21:04:34.142Z,5.27
2018-12-07T21:08:15.387Z,3.97
2018-12-07T21:11:33.436Z,3.07
2018-12-07T21:14:09.960Z,2.93
